sensor_id;sensor_type;location;lat;lon;timestamp;pressure;altitude;pressure_sealevel;temperature;humidity
63097;BME280;49185;42.320;23.198;2023-05-29T00:00:26;94561.44;;;13.47;84.29
63097;BME280;49185;42.320;23.198;2023-05-29T00:02:51;94560.91;;;13.45;84.90
63097;BME280;49185;42.320;23.198;2023-05-29T00:05:17;94561.44;;;13.47;85.27
63097;BME280;49185;42.320;23.198;2023-05-29T00:07:43;94566.81;;;13.37;85.56
63097;BME280;49185;42.320;23.198;2023-05-29T00:10:10;94553.13;;;13.64;84.08
63097;BME280;49185;42.320;23.198;2023-05-29T00:12:36;94554.44;;;13.72;84.05
63097;BME280;49185;42.320;23.198;2023-05-29T00:15:02;94556.66;;;13.28;86.20
63097;BME280;49185;42.320;23.198;2023-05-29T00:17:28;94563.06;;;13.33;86.21
63097;BME280;49185;42.320;23.198;2023-05-29T00:19:53;94559.06;;;13.15;86.76
63097;BME280;49185;42.320;23.198;2023-05-29T00:22:19;94561.72;;;13.30;86.66
63097;BME280;49185;42.320;23.198;2023-05-29T00:24:44;94563.59;;;13.24;86.11
63097;BME280;49185;42.320;23.198;2023-05-29T00:27:10;94561.19;;;13.28;86.09
63097;BME280;49185;42.320;23.198;2023-05-29T00:29:36;94560.94;;;12.94;87.94
63097;BME280;49185;42.320;23.198;2023-05-29T00:32:02;94561.47;;;12.80;88.12
63097;BME280;49185;42.320;23.198;2023-05-29T00:34:27;94558.53;;;12.71;88.89
63097;BME280;49185;42.320;23.198;2023-05-29T00:36:53;94566.22;;;12.42;90.24
63097;BME280;49185;42.320;23.198;2023-05-29T00:39:18;94576.13;;;12.67;89.28
63097;BME280;49185;42.320;23.198;2023-05-29T00:41:44;94572.13;;;12.54;89.54
63097;BME280;49185;42.320;23.198;2023-05-29T00:44:09;94565.69;;;12.45;90.31
63097;BME280;49185;42.320;23.198;2023-05-29T00:46:35;94566.22;;;12.42;91.04
63097;BME280;49185;42.320;23.198;2023-05-29T00:49:01;94562.25;;;12.60;90.73
63097;BME280;49185;42.320;23.198;2023-05-29T00:51:27;94564.94;;;12.70;90.13
63097;BME280;49185;42.320;23.198;2023-05-29T00:53:53;94561.69;;;12.48;90.88
63097;BME280;49185;42.320;23.198;2023-05-29T00:56:20;94560.94;;;12.63;90.80
63097;BME280;49185;42.320;23.198;2023-05-29T00:58:50;94564.63;;;12.41;91.46
63097;BME280;49185;42.320;23.198;2023-05-29T01:01:19;94561.66;;;12.38;91.67
63097;BME280;49185;42.320;23.198;2023-05-29T01:03:46;94564.91;;;12.45;91.06
63097;BME280;49185;42.320;23.198;2023-05-29T01:06:12;94558.78;;;12.54;90.50
63097;BME280;49185;42.320;23.198;2023-05-29T01:08:39;94564.41;;;12.68;90.53
63097;BME280;49185;42.320;23.198;2023-05-29T01:11:11;94553.97;;;12.98;89.29
63097;BME280;49185;42.320;23.198;2023-05-29T01:13:41;94554.81;;;13.08;87.79
63097;BME280;49185;42.320;23.198;2023-05-29T01:16:29;94564.41;;;13.09;87.52
63097;BME280;49185;42.320;23.198;2023-05-29T01:19:20;94555.03;;;13.17;87.18
63097;BME280;49185;42.320;23.198;2023-05-29T01:24:52;94557.72;;;13.27;86.92
63097;BME280;49185;42.320;23.198;2023-05-29T01:27:24;94550.25;;;13.40;86.32
63097;BME280;49185;42.320;23.198;2023-05-29T01:29:51;94549.97;;;13.31;86.39
63097;BME280;49185;42.320;23.198;2023-05-29T01:32:20;94549.16;;;13.10;87.25
63097;BME280;49185;42.320;23.198;2023-05-29T01:34:46;94553.19;;;13.07;87.84
63097;BME280;49185;42.320;23.198;2023-05-29T01:37:12;94546.50;;;13.10;87.33
63097;BME280;49185;42.320;23.198;2023-05-29T01:39:38;94547.59;;;12.99;88.49
63097;BME280;49185;42.320;23.198;2023-05-29T01:42:04;94552.41;;;12.91;88.84
63097;BME280;49185;42.320;23.198;2023-05-29T01:44:30;94549.72;;;12.91;88.35
63097;BME280;49185;42.320;23.198;2023-05-29T01:46:56;94551.59;;;12.81;89.43
63097;BME280;49185;42.320;23.198;2023-05-29T01:49:24;94557.72;;;12.56;90.36
63097;BME280;49185;42.320;23.198;2023-05-29T01:51:51;94554.50;;;12.43;91.62
63097;BME280;49185;42.320;23.198;2023-05-29T01:54:16;94549.72;;;12.56;91.09
63097;BME280;49185;42.320;23.198;2023-05-29T01:56:43;94548.63;;;12.57;91.05
63097;BME280;49185;42.320;23.198;2023-05-29T01:59:10;94542.53;;;12.71;90.06
63097;BME280;49185;42.320;23.198;2023-05-29T02:01:38;94545.72;;;12.63;90.63
63097;BME280;49185;42.320;23.198;2023-05-29T02:04:04;94546.53;;;12.79;89.94
63097;BME280;49185;42.320;23.198;2023-05-29T02:06:29;94544.13;;;12.93;88.62
63097;BME280;49185;42.320;23.198;2023-05-29T02:08:55;94534.22;;;12.88;88.60
63097;BME280;49185;42.320;23.198;2023-05-29T02:11:20;94536.63;;;12.85;89.06
63097;BME280;49185;42.320;23.198;2023-05-29T02:13:46;94534.53;;;12.77;89.41
63097;BME280;49185;42.320;23.198;2023-05-29T02:16:11;94533.16;;;12.64;90.01
63097;BME280;49185;42.320;23.198;2023-05-29T02:18:36;94533.44;;;12.67;90.16
63097;BME280;49185;42.320;23.198;2023-05-29T02:21:02;94536.09;;;12.62;90.64
63097;BME280;49185;42.320;23.198;2023-05-29T02:23:27;94547.28;;;12.44;91.20
63097;BME280;49185;42.320;23.198;2023-05-29T02:25:53;94551.81;;;12.38;91.49
63097;BME280;49185;42.320;23.198;2023-05-29T02:28:18;94552.88;;;12.42;91.88
63097;BME280;49185;42.320;23.198;2023-05-29T02:30:44;94550.78;;;12.54;91.08
63097;BME280;49185;42.320;23.198;2023-05-29T02:33:09;94555.59;;;12.58;90.76
63097;BME280;49185;42.320;23.198;2023-05-29T02:35:34;94552.63;;;12.44;90.74
63097;BME280;49185;42.320;23.198;2023-05-29T02:38:00;94555.56;;;12.47;91.39
63097;BME280;49185;42.320;23.198;2023-05-29T02:40:25;94558.75;;;12.39;91.30
63097;BME280;49185;42.320;23.198;2023-05-29T02:42:51;94559.28;;;12.46;90.91
63097;BME280;49185;42.320;23.198;2023-05-29T02:45:16;94560.13;;;12.52;91.05
63097;BME280;49185;42.320;23.198;2023-05-29T02:47:42;94554.78;;;12.62;90.39
63097;BME280;49185;42.320;23.198;2023-05-29T02:50:08;94559.63;;;12.86;89.08
63097;BME280;49185;42.320;23.198;2023-05-29T02:52:33;94567.06;;;12.94;88.72
63097;BME280;49185;42.320;23.198;2023-05-29T02:54:59;94563.06;;;12.91;88.61
63097;BME280;49185;42.320;23.198;2023-05-29T02:57:24;94571.09;;;12.97;88.01
63097;BME280;49185;42.320;23.198;2023-05-29T02:59:51;94563.31;;;13.21;86.93
63097;BME280;49185;42.320;23.198;2023-05-29T03:02:17;94574.28;;;12.99;88.28
63097;BME280;49185;42.320;23.198;2023-05-29T03:04:43;94568.16;;;12.93;88.57
63097;BME280;49185;42.320;23.198;2023-05-29T03:07:09;94564.16;;;12.80;89.17
63097;BME280;49185;42.320;23.198;2023-05-29T03:09:35;94571.09;;;12.86;88.62
63097;BME280;49185;42.320;23.198;2023-05-29T03:12:00;94565.19;;;13.20;87.13
63097;BME280;49185;42.320;23.198;2023-05-29T03:14:26;94569.22;;;13.07;87.69
63097;BME280;49185;42.320;23.198;2023-05-29T03:16:52;94572.16;;;13.11;86.97
63097;BME280;49185;42.320;23.198;2023-05-29T03:19:17;94575.88;;;13.20;86.67
63097;BME280;49185;42.320;23.198;2023-05-29T03:21:42;94574.25;;;13.29;85.95
63097;BME280;49185;42.320;23.198;2023-05-29T03:24:08;94580.16;;;13.37;85.48
63097;BME280;49185;42.320;23.198;2023-05-29T03:26:33;94574.28;;;13.24;86.33
63097;BME280;49185;42.320;23.198;2023-05-29T03:28:59;94576.41;;;13.22;86.42
63097;BME280;49185;42.320;23.198;2023-05-29T03:31:24;94584.16;;;13.19;86.59
63097;BME280;49185;42.320;23.198;2023-05-29T03:33:50;94587.91;;;13.13;86.80
63097;BME280;49185;42.320;23.198;2023-05-29T03:36:15;94582.56;;;13.02;87.54
63097;BME280;49185;42.320;23.198;2023-05-29T03:38:40;94593.25;;;12.97;87.63
63097;BME280;49185;42.320;23.198;2023-05-29T03:41:06;94598.06;;;13.00;87.70
63097;BME280;49185;42.320;23.198;2023-05-29T03:43:31;94605.53;;;12.98;87.89
63097;BME280;49185;42.320;23.198;2023-05-29T03:45:57;94606.88;;;13.06;87.71
63097;BME280;49185;42.320;23.198;2023-05-29T03:48:22;94598.06;;;13.05;88.54
63097;BME280;49185;42.320;23.198;2023-05-29T03:50:48;94599.13;;;13.20;87.69
63097;BME280;49185;42.320;23.198;2023-05-29T03:53:14;94598.06;;;13.31;86.52
63097;BME280;49185;42.320;23.198;2023-05-29T03:55:39;94606.88;;;13.57;86.11
63097;BME280;49185;42.320;23.198;2023-05-29T03:58:05;94601.78;;;13.71;85.32
63097;BME280;49185;42.320;23.198;2023-05-29T04:00:30;94598.50;;;13.84;84.97
63097;BME280;49185;42.320;23.198;2023-05-29T04:02:56;94610.53;;;13.92;84.68
63097;BME280;49185;42.320;23.198;2023-05-29T04:05:21;94612.09;;;14.03;84.55
63097;BME280;49185;42.320;23.198;2023-05-29T04:07:47;94616.91;;;14.07;84.31
63097;BME280;49185;42.320;23.198;2023-05-29T04:10:12;94618.47;;;14.18;83.80
63097;BME280;49185;42.320;23.198;2023-05-29T04:12:38;94620.59;;;14.21;83.67
63097;BME280;49185;42.320;23.198;2023-05-29T04:15:04;94626.47;;;14.28;83.10
63097;BME280;49185;42.320;23.198;2023-05-29T04:17:30;94626.41;;;14.38;82.96
63097;BME280;49185;42.320;23.198;2023-05-29T04:19:55;94626.34;;;14.54;82.20
63097;BME280;49185;42.320;23.198;2023-05-29T04:22:21;94629.88;;;14.44;82.60
63097;BME280;49185;42.320;23.198;2023-05-29T04:24:46;94626.78;;;14.76;81.34
63097;BME280;49185;42.320;23.198;2023-05-29T04:27:12;94632.16;;;14.71;81.51
63097;BME280;49185;42.320;23.198;2023-05-29T04:29:37;94631.66;;;14.64;82.75
63097;BME280;49185;42.320;23.198;2023-05-29T04:32:03;94631.63;;;14.69;82.34
63097;BME280;49185;42.320;23.198;2023-05-29T04:34:29;94635.91;;;14.75;82.04
63097;BME280;49185;42.320;23.198;2023-05-29T04:36:54;94639.09;;;14.77;82.29
63097;BME280;49185;42.320;23.198;2023-05-29T04:39:20;94633.94;;;14.91;81.74
63097;BME280;49185;42.320;23.198;2023-05-29T04:41:46;94633.88;;;15.02;81.38
63097;BME280;49185;42.320;23.198;2023-05-29T04:44:11;94635.28;;;14.89;82.22
63097;BME280;49185;42.320;23.198;2023-05-29T04:46:37;94636.25;;;15.03;81.73
63097;BME280;49185;42.320;23.198;2023-05-29T04:49:02;94639.69;;;15.14;81.54
63097;BME280;49185;42.320;23.198;2023-05-29T04:51:27;94645.38;;;15.36;80.31
63097;BME280;49185;42.320;23.198;2023-05-29T04:53:53;94646.22;;;15.37;80.38
63097;BME280;49185;42.320;23.198;2023-05-29T04:56:18;94657.38;;;15.49;79.73
63097;BME280;49185;42.320;23.198;2023-05-29T04:58:44;94655.16;;;15.56;79.82
63097;BME280;49185;42.320;23.198;2023-05-29T05:01:09;94662.06;;;15.63;78.98
63097;BME280;49185;42.320;23.198;2023-05-29T05:03:35;94665.84;;;15.62;79.45
63097;BME280;49185;42.320;23.198;2023-05-29T05:06:01;94666.31;;;15.69;79.29
63097;BME280;49185;42.320;23.198;2023-05-29T05:08:26;94663.75;;;15.88;77.90
63097;BME280;49185;42.320;23.198;2023-05-29T05:10:52;94670.44;;;15.90;78.22
63097;BME280;49185;42.320;23.198;2023-05-29T05:13:17;94671.47;;;15.94;77.34
63097;BME280;49185;42.320;23.198;2023-05-29T05:15:43;94677.53;;;16.29;76.63
63097;BME280;49185;42.320;23.198;2023-05-29T05:18:08;94669.22;;;16.31;75.86
63097;BME280;49185;42.320;23.198;2023-05-29T05:20:34;94676.16;;;16.32;75.59
63097;BME280;49185;42.320;23.198;2023-05-29T05:22:59;94679.91;;;16.79;74.23
63097;BME280;49185;42.320;23.198;2023-05-29T05:25:25;94681.81;;;16.79;74.07
63097;BME280;49185;42.320;23.198;2023-05-29T05:27:50;94680.09;;;16.88;73.27
63097;BME280;49185;42.320;23.198;2023-05-29T05:30:16;94682.88;;;17.02;72.87
63097;BME280;49185;42.320;23.198;2023-05-29T05:32:41;94682.06;;;17.20;71.88
63097;BME280;49185;42.320;23.198;2023-05-29T05:35:07;94689.00;;;17.40;71.30
63097;BME280;49185;42.320;23.198;2023-05-29T05:37:32;94683.19;;;17.33;72.06
63097;BME280;49185;42.320;23.198;2023-05-29T05:39:58;94680.66;;;17.42;71.39
63097;BME280;49185;42.320;23.198;2023-05-29T05:42:24;94675.91;;;17.53;71.42
63097;BME280;49185;42.320;23.198;2023-05-29T05:44:49;94677.31;;;17.31;71.63
63097;BME280;49185;42.320;23.198;2023-05-29T05:47:14;94677.88;;;17.66;70.17
63097;BME280;49185;42.320;23.198;2023-05-29T05:49:40;94675.31;;;18.49;68.44
63097;BME280;49185;42.320;23.198;2023-05-29T05:52:05;94673.81;;;18.15;68.57
63097;BME280;49185;42.320;23.198;2023-05-29T05:54:31;94677.38;;;17.64;69.63
63097;BME280;49185;42.320;23.198;2023-05-29T05:56:56;94672.97;;;17.35;70.47
63097;BME280;49185;42.320;23.198;2023-05-29T05:59:22;94672.81;;;17.78;69.61
63097;BME280;49185;42.320;23.198;2023-05-29T06:01:47;94674.03;;;17.53;69.89
63097;BME280;49185;42.320;23.198;2023-05-29T06:04:13;94669.25;;;17.83;68.46
63097;BME280;49185;42.320;23.198;2023-05-29T06:06:38;94679.41;;;18.19;67.98
63097;BME280;49185;42.320;23.198;2023-05-29T06:09:04;94677.47;;;18.06;68.50
63097;BME280;49185;42.320;23.198;2023-05-29T06:11:29;94683.31;;;18.40;68.07
63097;BME280;49185;42.320;23.198;2023-05-29T06:13:55;94681.78;;;18.07;67.95
63097;BME280;49185;42.320;23.198;2023-05-29T06:16:20;94679.06;;;17.74;69.31
63097;BME280;49185;42.320;23.198;2023-05-29T06:18:45;94671.63;;;17.84;69.48
63097;BME280;49185;42.320;23.198;2023-05-29T06:21:14;94668.50;;;17.96;68.49
63097;BME280;49185;42.320;23.198;2023-05-29T06:23:39;94663.16;;;18.24;67.82
63097;BME280;49185;42.320;23.198;2023-05-29T06:26:05;94663.72;;;18.07;67.90
63097;BME280;49185;42.320;23.198;2023-05-29T06:28:30;94670.41;;;17.77;69.06
63097;BME280;49185;42.320;23.198;2023-05-29T06:30:56;94665.19;;;17.86;68.94
63097;BME280;49185;42.320;23.198;2023-05-29T06:33:21;94659.81;;;17.86;68.65
63097;BME280;49185;42.320;23.198;2023-05-29T06:35:47;94662.84;;;18.26;66.83
63097;BME280;49185;42.320;23.198;2023-05-29T06:38:13;94659.25;;;18.72;65.27
63097;BME280;49185;42.320;23.198;2023-05-29T06:40:39;94657.78;;;21.91;55.88
63097;BME280;49185;42.320;23.198;2023-05-29T06:43:04;94648.03;;;23.69;49.46
63097;BME280;49185;42.320;23.198;2023-05-29T06:45:30;94646.47;;;24.47;46.83
63097;BME280;49185;42.320;23.198;2023-05-29T06:47:55;94655.28;;;23.23;50.15
63097;BME280;49185;42.320;23.198;2023-05-29T06:50:20;94649.50;;;24.45;47.00
63097;BME280;49185;42.320;23.198;2023-05-29T06:52:46;94659.22;;;24.34;45.66
63097;BME280;49185;42.320;23.198;2023-05-29T06:55:12;94654.34;;;25.38;43.19
63097;BME280;49185;42.320;23.198;2023-05-29T06:57:37;94653.78;;;25.33;43.35
63097;BME280;49185;42.320;23.198;2023-05-29T07:00:04;94656.81;;;26.28;41.52
63097;BME280;49185;42.320;23.198;2023-05-29T07:02:30;94657.47;;;25.81;42.33
63097;BME280;49185;42.320;23.198;2023-05-29T07:04:55;94650.63;;;26.00;41.36
63097;BME280;49185;42.320;23.198;2023-05-29T07:07:21;94657.31;;;25.21;42.85
63097;BME280;49185;42.320;23.198;2023-05-29T07:09:46;94664.47;;;23.94;46.14
63097;BME280;49185;42.320;23.198;2023-05-29T07:12:11;94654.38;;;24.28;45.00
63097;BME280;49185;42.320;23.198;2023-05-29T07:14:37;94662.00;;;24.71;43.79
63097;BME280;49185;42.320;23.198;2023-05-29T07:17:02;94654.09;;;26.28;41.76
63097;BME280;49185;42.320;23.198;2023-05-29T07:19:28;94658.53;;;27.32;38.77
63097;BME280;49185;42.320;23.198;2023-05-29T07:21:53;94640.69;;;27.58;36.79
63097;BME280;49185;42.320;23.198;2023-05-29T07:24:18;94642.16;;;27.71;37.66
63097;BME280;49185;42.320;23.198;2023-05-29T07:26:44;94641.47;;;27.03;38.25
63097;BME280;49185;42.320;23.198;2023-05-29T07:29:09;94642.16;;;27.16;38.85
63097;BME280;49185;42.320;23.198;2023-05-29T07:31:36;94642.22;;;27.75;36.12
63097;BME280;49185;42.320;23.198;2023-05-29T07:34:01;94645.38;;;26.23;39.67
63097;BME280;49185;42.320;23.198;2023-05-29T07:36:30;94640.00;;;26.26;39.16
63097;BME280;49185;42.320;23.198;2023-05-29T07:38:56;94638.41;;;25.53;39.92
63097;BME280;49185;42.320;23.198;2023-05-29T07:41:21;94632.13;;;25.65;41.32
63097;BME280;49185;42.320;23.198;2023-05-29T07:43:46;94633.53;;;25.74;41.09
63097;BME280;49185;42.320;23.198;2023-05-29T07:46:12;94632.16;;;24.99;41.79
63097;BME280;49185;42.320;23.198;2023-05-29T07:48:37;94639.66;;;26.28;39.43
63097;BME280;49185;42.320;23.198;2023-05-29T07:51:03;94636.44;;;25.66;39.67
63097;BME280;49185;42.320;23.198;2023-05-29T07:53:28;94634.06;;;25.92;39.49
63097;BME280;49185;42.320;23.198;2023-05-29T07:55:53;94638.16;;;26.30;38.00
63097;BME280;49185;42.320;23.198;2023-05-29T07:58:19;94630.28;;;25.97;39.72
63097;BME280;49185;42.320;23.198;2023-05-29T08:00:44;94643.25;;;26.32;39.16
63097;BME280;49185;42.320;23.198;2023-05-29T08:03:10;94643.22;;;26.00;39.73
63097;BME280;49185;42.320;23.198;2023-05-29T08:05:35;94633.47;;;25.87;39.52
63097;BME280;49185;42.320;23.198;2023-05-29T08:08:00;94634.97;;;26.92;38.30
63097;BME280;49185;42.320;23.198;2023-05-29T08:10:26;94634.97;;;26.92;37.25
63097;BME280;49185;42.320;23.198;2023-05-29T08:12:51;94636.53;;;25.41;38.74
63097;BME280;49185;42.320;23.198;2023-05-29T08:15:18;94629.56;;;24.91;40.14
63097;BME280;49185;42.320;23.198;2023-05-29T08:17:44;94637.44;;;26.02;37.84
63097;BME280;49185;42.320;23.198;2023-05-29T08:20:09;94636.44;;;25.66;38.07
63097;BME280;49185;42.320;23.198;2023-05-29T08:22:35;94628.84;;;25.87;38.45
63097;BME280;49185;42.320;23.198;2023-05-29T08:25:00;94631.03;;;26.58;35.94
63097;BME280;49185;42.320;23.198;2023-05-29T08:27:26;94636.25;;;26.63;37.36
63097;BME280;49185;42.320;23.198;2023-05-29T08:29:51;94634.81;;;26.21;37.53
63097;BME280;49185;42.320;23.198;2023-05-29T08:32:16;94639.56;;;26.24;36.19
63097;BME280;49185;42.320;23.198;2023-05-29T08:34:42;94628.28;;;26.42;34.81
63097;BME280;49185;42.320;23.198;2023-05-29T08:37:07;94624.78;;;26.41;36.02
63097;BME280;49185;42.320;23.198;2023-05-29T08:39:33;94635.16;;;26.51;37.32
63097;BME280;49185;42.320;23.198;2023-05-29T08:42:04;94630.69;;;26.75;35.17
63097;BME280;49185;42.320;23.198;2023-05-29T08:44:33;94632.91;;;25.65;36.56
63097;BME280;49185;42.320;23.198;2023-05-29T08:47:01;94631.13;;;26.29;35.93
63097;BME280;49185;42.320;23.198;2023-05-29T08:49:29;94626.56;;;26.81;34.21
63097;BME280;49185;42.320;23.198;2023-05-29T08:52:02;94624.00;;;26.73;34.65
63097;BME280;49185;42.320;23.198;2023-05-29T08:54:31;94622.53;;;26.95;35.08
63097;BME280;49185;42.320;23.198;2023-05-29T08:56:57;94612.56;;;26.67;36.25
63097;BME280;49185;42.320;23.198;2023-05-29T08:59:22;94607.00;;;28.12;33.04
63097;BME280;49185;42.320;23.198;2023-05-29T09:01:48;94612.66;;;27.61;35.44
63097;BME280;49185;42.320;23.198;2023-05-29T09:04:13;94607.84;;;28.16;33.58
63097;BME280;49185;42.320;23.198;2023-05-29T09:06:39;94608.91;;;28.54;33.31
63097;BME280;49185;42.320;23.198;2023-05-29T09:09:05;94606.91;;;28.78;31.25
63097;BME280;49185;42.320;23.198;2023-05-29T09:11:30;94603.13;;;27.74;33.95
63097;BME280;49185;42.320;23.198;2023-05-29T09:13:56;94614.50;;;27.02;34.35
63097;BME280;49185;42.320;23.198;2023-05-29T09:16:22;94613.44;;;27.42;33.62
63097;BME280;49185;42.320;23.198;2023-05-29T09:18:47;94595.94;;;27.86;32.77
63097;BME280;49185;42.320;23.198;2023-05-29T09:21:26;94605.38;;;27.69;33.38
63097;BME280;49185;42.320;23.198;2023-05-29T09:23:54;94600.13;;;25.62;38.05
63097;BME280;49185;42.320;23.198;2023-05-29T09:26:21;94602.25;;;25.40;38.49
63097;BME280;49185;42.320;23.198;2023-05-29T09:28:46;94593.56;;;26.39;36.02
63097;BME280;49185;42.320;23.198;2023-05-29T09:31:15;94589.47;;;27.74;32.98
63097;BME280;49185;42.320;23.198;2023-05-29T09:33:47;94583.03;;;27.43;32.54
63097;BME280;49185;42.320;23.198;2023-05-29T09:36:20;94587.75;;;26.56;34.01
63097;BME280;49185;42.320;23.198;2023-05-29T09:38:45;94590.84;;;26.23;35.56
63097;BME280;49185;42.320;23.198;2023-05-29T09:41:11;94584.94;;;26.05;34.38
63097;BME280;49185;42.320;23.198;2023-05-29T09:43:38;94586.88;;;25.76;37.08
63097;BME280;49185;42.320;23.198;2023-05-29T09:46:06;94583.09;;;26.25;36.19
63097;BME280;49185;42.320;23.198;2023-05-29T09:48:31;94586.53;;;26.89;34.54
63097;BME280;49185;42.320;23.198;2023-05-29T09:50:57;94590.25;;;25.85;34.22
63097;BME280;49185;42.320;23.198;2023-05-29T09:53:24;94590.38;;;26.68;34.13
63097;BME280;49185;42.320;23.198;2023-05-29T09:55:51;94587.66;;;26.52;35.33
63097;BME280;49185;42.320;23.198;2023-05-29T09:58:20;94589.00;;;27.30;34.76
63097;BME280;49185;42.320;23.198;2023-05-29T10:00:46;94582.50;;;25.87;35.63
63097;BME280;49185;42.320;23.198;2023-05-29T10:03:12;94591.78;;;25.01;36.99
63097;BME280;49185;42.320;23.198;2023-05-29T10:05:39;94590.00;;;24.93;37.03
63097;BME280;49185;42.320;23.198;2023-05-29T10:08:05;94586.13;;;24.94;36.45
63097;BME280;49185;42.320;23.198;2023-05-29T10:10:34;94586.16;;;25.35;35.75
63097;BME280;49185;42.320;23.198;2023-05-29T10:13:02;94578.78;;;25.23;36.74
63097;BME280;49185;42.320;23.198;2023-05-29T10:15:28;94581.59;;;24.98;37.20
63097;BME280;49185;42.320;23.198;2023-05-29T10:18:02;94568.94;;;24.41;39.08
63097;BME280;49185;42.320;23.198;2023-05-29T10:20:28;94580.81;;;24.36;40.53
63097;BME280;49185;42.320;23.198;2023-05-29T10:22:56;94586.38;;;24.03;42.30
63097;BME280;49185;42.320;23.198;2023-05-29T10:25:23;94584.00;;;24.14;43.01
63097;BME280;49185;42.320;23.198;2023-05-29T10:27:50;94598.81;;;22.95;45.27
63097;BME280;49185;42.320;23.198;2023-05-29T10:35:25;94604.19;;;22.06;51.15
63097;BME280;49185;42.320;23.198;2023-05-29T10:38:17;94605.22;;;21.92;51.53
63097;BME280;49185;42.320;23.198;2023-05-29T10:40:43;94606.69;;;20.76;60.60
63097;BME280;49185;42.320;23.198;2023-05-29T10:43:08;94600.84;;;20.43;60.53
63097;BME280;49185;42.320;23.198;2023-05-29T10:50:45;94600.84;;;20.34;60.22
63097;BME280;49185;42.320;23.198;2023-05-29T10:53:18;94607.53;;;19.97;60.04
63097;BME280;49185;42.320;23.198;2023-05-29T10:55:47;94595.91;;;19.65;59.76
63097;BME280;49185;42.320;23.198;2023-05-29T10:58:17;94607.59;;;19.51;60.25
63097;BME280;49185;42.320;23.198;2023-05-29T11:00:45;94591.72;;;19.81;60.48
63097;BME280;49185;42.320;23.198;2023-05-29T11:03:11;94599.91;;;19.67;60.44
63097;BME280;49185;42.320;23.198;2023-05-29T11:06:19;94601.34;;;19.96;58.33
63097;BME280;49185;42.320;23.198;2023-05-29T11:08:46;94591.97;;;20.02;57.59
63097;BME280;49185;42.320;23.198;2023-05-29T11:11:15;94593.31;;;20.14;58.32
63097;BME280;49185;42.320;23.198;2023-05-29T11:13:57;94584.34;;;20.44;59.17
63097;BME280;49185;42.320;23.198;2023-05-29T11:18:52;94583.81;;;20.91;55.63
63097;BME280;49185;42.320;23.198;2023-05-29T11:26:47;94572.81;;;21.05;51.98
63097;BME280;49185;42.320;23.198;2023-05-29T11:29:12;94573.47;;;21.11;52.30
63097;BME280;49185;42.320;23.198;2023-05-29T11:31:40;94569.78;;;21.41;51.04
63097;BME280;49185;42.320;23.198;2023-05-29T11:34:09;94571.03;;;21.35;51.13
63097;BME280;49185;42.320;23.198;2023-05-29T11:36:39;94566.28;;;21.41;51.19
63097;BME280;49185;42.320;23.198;2023-05-29T11:39:05;94563.53;;;21.67;52.44
63097;BME280;49185;42.320;23.198;2023-05-29T11:41:30;94552.44;;;22.37;50.70
63097;BME280;49185;42.320;23.198;2023-05-29T11:43:59;94544.00;;;23.02;50.16
63097;BME280;49185;42.320;23.198;2023-05-29T11:46:25;94543.13;;;24.10;46.54
63097;BME280;49185;42.320;23.198;2023-05-29T11:48:51;94544.00;;;24.51;45.72
63097;BME280;49185;42.320;23.198;2023-05-29T11:51:16;94537.13;;;25.35;43.81
63097;BME280;49185;42.320;23.198;2023-05-29T11:53:42;94537.03;;;24.91;44.04
63097;BME280;49185;42.320;23.198;2023-05-29T11:56:08;94535.66;;;24.56;45.71
63097;BME280;49185;42.320;23.198;2023-05-29T11:58:34;94530.97;;;24.69;44.00
63097;BME280;49185;42.320;23.198;2023-05-29T12:01:01;94522.72;;;24.16;46.90
63097;BME280;49185;42.320;23.198;2023-05-29T12:03:26;94527.44;;;25.66;41.86
63097;BME280;49185;42.320;23.198;2023-05-29T12:05:52;94525.34;;;25.91;41.64
63097;BME280;49185;42.320;23.198;2023-05-29T12:08:23;94529.00;;;24.82;45.82
63097;BME280;49185;42.320;23.198;2023-05-29T12:10:50;94522.81;;;23.83;49.35
63097;BME280;49185;42.320;23.198;2023-05-29T12:13:15;94514.34;;;24.21;46.21
63097;BME280;49185;42.320;23.198;2023-05-29T12:15:41;94518.56;;;25.12;46.60
63097;BME280;49185;42.320;23.198;2023-05-29T12:18:07;94516.47;;;26.26;44.42
63097;BME280;49185;42.320;23.198;2023-05-29T12:20:32;94513.09;;;25.53;44.09
63097;BME280;49185;42.320;23.198;2023-05-29T12:23:02;94514.09;;;24.51;44.40
63097;BME280;49185;42.320;23.198;2023-05-29T12:25:28;94499.72;;;25.48;41.65
63097;BME280;49185;42.320;23.198;2023-05-29T12:27:55;94518.69;;;24.75;43.13
63097;BME280;49185;42.320;23.198;2023-05-29T12:30:22;94518.44;;;25.21;41.92
63097;BME280;49185;42.320;23.198;2023-05-29T12:32:52;94516.38;;;24.61;43.56
63097;BME280;49185;42.320;23.198;2023-05-29T12:35:19;94509.16;;;24.81;43.34
63097;BME280;49185;42.320;23.198;2023-05-29T12:40:19;94499.50;;;23.82;44.00
63097;BME280;49185;42.320;23.198;2023-05-29T12:42:46;94506.28;;;24.00;44.12
63097;BME280;49185;42.320;23.198;2023-05-29T12:45:12;94501.63;;;24.01;44.40
63097;BME280;49185;42.320;23.198;2023-05-29T12:47:37;94498.63;;;23.69;44.69
63097;BME280;49185;42.320;23.198;2023-05-29T12:53:00;94505.72;;;24.07;43.75
63097;BME280;49185;42.320;23.198;2023-05-29T12:55:31;94493.16;;;24.15;43.18
63097;BME280;49185;42.320;23.198;2023-05-29T12:57:57;94494.06;;;24.31;43.41
63097;BME280;49185;42.320;23.198;2023-05-29T13:00:23;94487.47;;;24.97;41.84
63097;BME280;49185;42.320;23.198;2023-05-29T13:02:50;94482.03;;;24.32;43.96
63097;BME280;49185;42.320;23.198;2023-05-29T13:05:16;94486.03;;;24.22;44.24
63097;BME280;49185;42.320;23.198;2023-05-29T13:07:42;94484.66;;;24.29;45.45
63097;BME280;49185;42.320;23.198;2023-05-29T13:10:08;94474.78;;;24.24;44.38
63097;BME280;49185;42.320;23.198;2023-05-29T13:12:35;94484.63;;;24.53;43.65